sensor_id;sensor_type;location;lat;lon;timestamp;temperature;humidity
13707;DHT22;6925;47.816;13.072;2023-10-19T00:00:54;13.20;66.80
13707;DHT22;6925;47.816;13.072;2023-10-19T00:03:23;13.20;66.80
13707;DHT22;6925;47.816;13.072;2023-10-19T00:05:49;13.20;66.50
13707;DHT22;6925;47.816;13.072;2023-10-19T00:08:17;13.20;66.80
13707;DHT22;6925;47.816;13.072;2023-10-19T00:10:47;13.20;66.90
13707;DHT22;6925;47.816;13.072;2023-10-19T00:13:19;13.20;66.90
13707;DHT22;6925;47.816;13.072;2023-10-19T00:15:48;13.20;66.40
13707;DHT22;6925;47.816;13.072;2023-10-19T00:18:16;13.20;65.80
13707;DHT22;6925;47.816;13.072;2023-10-19T00:20:51;13.10;65.80
13707;DHT22;6925;47.816;13.072;2023-10-19T00:23:20;13.10;66.00
13707;DHT22;6925;47.816;13.072;2023-10-19T00:25:55;13.10;65.90
13707;DHT22;6925;47.816;13.072;2023-10-19T00:28:22;13.10;65.80
13707;DHT22;6925;47.816;13.072;2023-10-19T00:30:48;13.00;66.00
13707;DHT22;6925;47.816;13.072;2023-10-19T00:33:20;13.00;65.90
13707;DHT22;6925;47.816;13.072;2023-10-19T00:35:48;13.10;66.10
13707;DHT22;6925;47.816;13.072;2023-10-19T00:38:25;13.10;66.40
13707;DHT22;6925;47.816;13.072;2023-10-19T00:41:06;13.10;66.00
13707;DHT22;6925;47.816;13.072;2023-10-19T00:43:38;13.10;65.70
13707;DHT22;6925;47.816;13.072;2023-10-19T00:46:09;13.10;65.50
13707;DHT22;6925;47.816;13.072;2023-10-19T00:48:45;13.10;65.40
13707;DHT22;6925;47.816;13.072;2023-10-19T00:51:13;13.00;65.30
13707;DHT22;6925;47.816;13.072;2023-10-19T00:53:54;13.00;65.40
13707;DHT22;6925;47.816;13.072;2023-10-19T00:56:22;12.90;65.60
13707;DHT22;6925;47.816;13.072;2023-10-19T00:58:52;12.90;65.70
13707;DHT22;6925;47.816;13.072;2023-10-19T01:01:28;12.90;65.40
13707;DHT22;6925;47.816;13.072;2023-10-19T01:03:57;12.90;65.50
13707;DHT22;6925;47.816;13.072;2023-10-19T01:06:24;12.90;65.60
13707;DHT22;6925;47.816;13.072;2023-10-19T01:08:57;12.90;65.60
13707;DHT22;6925;47.816;13.072;2023-10-19T01:11:24;12.90;65.70
13707;DHT22;6925;47.816;13.072;2023-10-19T01:13:54;12.90;65.90
13707;DHT22;6925;47.816;13.072;2023-10-19T01:16:21;12.80;65.50
13707;DHT22;6925;47.816;13.072;2023-10-19T01:18:49;12.80;65.60
13707;DHT22;6925;47.816;13.072;2023-10-19T01:21:22;12.80;65.70
13707;DHT22;6925;47.816;13.072;2023-10-19T01:23:52;12.80;65.70
13707;DHT22;6925;47.816;13.072;2023-10-19T01:26:20;12.80;65.90
13707;DHT22;6925;47.816;13.072;2023-10-19T01:28:51;12.80;65.90
13707;DHT22;6925;47.816;13.072;2023-10-19T01:31:23;12.90;65.40
13707;DHT22;6925;47.816;13.072;2023-10-19T01:33:57;12.80;65.80
13707;DHT22;6925;47.816;13.072;2023-10-19T01:36:25;12.80;65.70
13707;DHT22;6925;47.816;13.072;2023-10-19T01:38:55;12.90;65.40
13707;DHT22;6925;47.816;13.072;2023-10-19T01:41:24;12.80;65.40
13707;DHT22;6925;47.816;13.072;2023-10-19T01:43:53;12.90;65.60
13707;DHT22;6925;47.816;13.072;2023-10-19T01:46:19;13.00;66.20
13707;DHT22;6925;47.816;13.072;2023-10-19T01:48:51;13.00;66.30
13707;DHT22;6925;47.816;13.072;2023-10-19T01:51:21;13.00;65.40
13707;DHT22;6925;47.816;13.072;2023-10-19T01:53:50;13.10;65.20
13707;DHT22;6925;47.816;13.072;2023-10-19T01:56:18;13.10;65.60
13707;DHT22;6925;47.816;13.072;2023-10-19T01:58:48;13.10;65.60
13707;DHT22;6925;47.816;13.072;2023-10-19T02:01:15;13.10;65.40
13707;DHT22;6925;47.816;13.072;2023-10-19T02:03:47;13.10;65.70
13707;DHT22;6925;47.816;13.072;2023-10-19T02:06:15;13.10;65.20
13707;DHT22;6925;47.816;13.072;2023-10-19T02:08:46;13.10;65.00
13707;DHT22;6925;47.816;13.072;2023-10-19T02:11:14;13.10;64.90
13707;DHT22;6925;47.816;13.072;2023-10-19T02:13:45;13.10;65.00
13707;DHT22;6925;47.816;13.072;2023-10-19T02:16:13;13.10;64.80
13707;DHT22;6925;47.816;13.072;2023-10-19T02:18:42;13.10;64.20
13707;DHT22;6925;47.816;13.072;2023-10-19T02:21:08;13.10;65.00
13707;DHT22;6925;47.816;13.072;2023-10-19T02:23:38;13.10;65.00
13707;DHT22;6925;47.816;13.072;2023-10-19T02:26:05;13.10;64.90
13707;DHT22;6925;47.816;13.072;2023-10-19T02:28:32;13.10;65.10
13707;DHT22;6925;47.816;13.072;2023-10-19T02:30:59;13.10;64.90
13707;DHT22;6925;47.816;13.072;2023-10-19T02:33:37;13.10;64.80
13707;DHT22;6925;47.816;13.072;2023-10-19T02:36:04;13.10;64.70
13707;DHT22;6925;47.816;13.072;2023-10-19T02:38:39;13.00;65.20
13707;DHT22;6925;47.816;13.072;2023-10-19T02:41:05;12.90;65.80
13707;DHT22;6925;47.816;13.072;2023-10-19T02:43:32;12.80;65.70
13707;DHT22;6925;47.816;13.072;2023-10-19T02:46:00;12.80;66.30
13707;DHT22;6925;47.816;13.072;2023-10-19T02:48:28;12.80;66.30
13707;DHT22;6925;47.816;13.072;2023-10-19T02:50:54;12.80;66.00
13707;DHT22;6925;47.816;13.072;2023-10-19T02:53:21;12.70;66.20
13707;DHT22;6925;47.816;13.072;2023-10-19T02:55:47;12.60;66.30
13707;DHT22;6925;47.816;13.072;2023-10-19T02:58:17;12.60;66.20
13707;DHT22;6925;47.816;13.072;2023-10-19T03:00:43;12.60;66.10
13707;DHT22;6925;47.816;13.072;2023-10-19T03:03:13;12.60;66.30
13707;DHT22;6925;47.816;13.072;2023-10-19T03:05:39;12.70;65.80
13707;DHT22;6925;47.816;13.072;2023-10-19T03:08:09;12.60;66.60
13707;DHT22;6925;47.816;13.072;2023-10-19T03:10:35;12.60;66.20
13707;DHT22;6925;47.816;13.072;2023-10-19T03:13:08;12.60;66.60
13707;DHT22;6925;47.816;13.072;2023-10-19T03:15:33;12.60;66.20
13707;DHT22;6925;47.816;13.072;2023-10-19T03:18:01;12.60;66.50
13707;DHT22;6925;47.816;13.072;2023-10-19T03:20:29;12.50;66.50
13707;DHT22;6925;47.816;13.072;2023-10-19T03:22:59;12.40;66.50
13707;DHT22;6925;47.816;13.072;2023-10-19T03:25:27;12.40;66.60
13707;DHT22;6925;47.816;13.072;2023-10-19T03:28:21;12.40;67.30
13707;DHT22;6925;47.816;13.072;2023-10-19T03:30:51;12.40;66.90
13707;DHT22;6925;47.816;13.072;2023-10-19T03:33:21;12.50;67.20
13707;DHT22;6925;47.816;13.072;2023-10-19T03:35:54;12.40;66.70
13707;DHT22;6925;47.816;13.072;2023-10-19T03:38:21;12.50;67.30
13707;DHT22;6925;47.816;13.072;2023-10-19T03:40:48;12.50;66.70
13707;DHT22;6925;47.816;13.072;2023-10-19T03:43:25;12.50;66.60
13707;DHT22;6925;47.816;13.072;2023-10-19T03:45:53;12.50;66.70
13707;DHT22;6925;47.816;13.072;2023-10-19T03:48:21;12.50;66.50
13707;DHT22;6925;47.816;13.072;2023-10-19T03:50:54;12.50;66.90
13707;DHT22;6925;47.816;13.072;2023-10-19T03:53:22;12.60;67.20
13707;DHT22;6925;47.816;13.072;2023-10-19T03:55:49;12.50;67.30
13707;DHT22;6925;47.816;13.072;2023-10-19T03:58:18;12.50;67.00
13707;DHT22;6925;47.816;13.072;2023-10-19T04:00:47;12.60;67.00
13707;DHT22;6925;47.816;13.072;2023-10-19T04:03:15;12.50;66.90
13707;DHT22;6925;47.816;13.072;2023-10-19T04:05:44;12.50;67.60
13707;DHT22;6925;47.816;13.072;2023-10-19T04:08:14;12.60;67.80
13707;DHT22;6925;47.816;13.072;2023-10-19T04:10:45;12.60;67.40
13707;DHT22;6925;47.816;13.072;2023-10-19T04:13:33;12.60;67.80
13707;DHT22;6925;47.816;13.072;2023-10-19T04:16:00;12.60;68.20
13707;DHT22;6925;47.816;13.072;2023-10-19T04:18:27;12.60;67.70
13707;DHT22;6925;47.816;13.072;2023-10-19T04:20:54;12.60;67.50
13707;DHT22;6925;47.816;13.072;2023-10-19T04:23:24;12.60;67.40
13707;DHT22;6925;47.816;13.072;2023-10-19T04:25:53;12.50;67.50
13707;DHT22;6925;47.816;13.072;2023-10-19T04:28:23;12.40;67.70
13707;DHT22;6925;47.816;13.072;2023-10-19T04:30:57;12.40;68.20
13707;DHT22;6925;47.816;13.072;2023-10-19T04:33:28;12.40;68.40
13707;DHT22;6925;47.816;13.072;2023-10-19T04:35:55;12.40;68.40
13707;DHT22;6925;47.816;13.072;2023-10-19T04:38:27;12.40;68.70
13707;DHT22;6925;47.816;13.072;2023-10-19T04:41:04;12.40;68.60
13707;DHT22;6925;47.816;13.072;2023-10-19T04:43:34;12.40;68.40
13707;DHT22;6925;47.816;13.072;2023-10-19T04:46:05;12.40;68.70
13707;DHT22;6925;47.816;13.072;2023-10-19T04:48:34;12.40;69.10
13707;DHT22;6925;47.816;13.072;2023-10-19T04:51:02;12.40;69.00
13707;DHT22;6925;47.816;13.072;2023-10-19T04:53:32;12.30;68.80
13707;DHT22;6925;47.816;13.072;2023-10-19T04:55:59;12.20;69.30
13707;DHT22;6925;47.816;13.072;2023-10-19T04:58:27;12.20;68.50
13707;DHT22;6925;47.816;13.072;2023-10-19T05:00:54;11.90;68.40
13707;DHT22;6925;47.816;13.072;2023-10-19T05:03:25;11.70;69.00
13707;DHT22;6925;47.816;13.072;2023-10-19T05:05:54;11.60;70.10
13707;DHT22;6925;47.816;13.072;2023-10-19T05:08:22;11.70;70.20
13707;DHT22;6925;47.816;13.072;2023-10-19T05:10:52;11.80;70.30
13707;DHT22;6925;47.816;13.072;2023-10-19T05:13:21;11.90;70.10
13707;DHT22;6925;47.816;13.072;2023-10-19T05:15:48;11.90;70.00
13707;DHT22;6925;47.816;13.072;2023-10-19T05:18:15;12.00;69.90
13707;DHT22;6925;47.816;13.072;2023-10-19T05:20:42;12.00;69.80
13707;DHT22;6925;47.816;13.072;2023-10-19T05:23:09;12.00;69.80
13707;DHT22;6925;47.816;13.072;2023-10-19T05:25:36;12.00;70.00
13707;DHT22;6925;47.816;13.072;2023-10-19T05:28:06;12.00;70.00
13707;DHT22;6925;47.816;13.072;2023-10-19T05:30:35;12.00;70.00
13707;DHT22;6925;47.816;13.072;2023-10-19T05:33:02;12.00;70.20
13707;DHT22;6925;47.816;13.072;2023-10-19T05:35:29;12.00;70.40
13707;DHT22;6925;47.816;13.072;2023-10-19T05:38:00;12.00;70.40
13707;DHT22;6925;47.816;13.072;2023-10-19T05:40:28;12.00;70.10
13707;DHT22;6925;47.816;13.072;2023-10-19T05:42:57;12.00;70.10
13707;DHT22;6925;47.816;13.072;2023-10-19T05:45:27;12.00;70.50
13707;DHT22;6925;47.816;13.072;2023-10-19T05:47:55;11.80;70.20
13707;DHT22;6925;47.816;13.072;2023-10-19T05:50:23;11.80;70.90
13707;DHT22;6925;47.816;13.072;2023-10-19T05:52:50;11.90;71.10
13707;DHT22;6925;47.816;13.072;2023-10-19T05:55:18;11.90;70.80
13707;DHT22;6925;47.816;13.072;2023-10-19T05:57:47;11.90;70.70
13707;DHT22;6925;47.816;13.072;2023-10-19T06:00:15;11.90;70.60
13707;DHT22;6925;47.816;13.072;2023-10-19T06:02:46;11.80;71.40
13707;DHT22;6925;47.816;13.072;2023-10-19T06:05:15;11.90;71.70
13707;DHT22;6925;47.816;13.072;2023-10-19T06:07:43;11.90;71.70
13707;DHT22;6925;47.816;13.072;2023-10-19T06:10:11;12.00;72.20
13707;DHT22;6925;47.816;13.072;2023-10-19T06:12:41;12.10;72.50
13707;DHT22;6925;47.816;13.072;2023-10-19T06:15:10;12.20;72.30
13707;DHT22;6925;47.816;13.072;2023-10-19T06:17:38;12.20;71.60
13707;DHT22;6925;47.816;13.072;2023-10-19T06:20:08;12.10;71.60
13707;DHT22;6925;47.816;13.072;2023-10-19T06:22:46;12.10;72.10
13707;DHT22;6925;47.816;13.072;2023-10-19T06:25:16;12.20;72.50
13707;DHT22;6925;47.816;13.072;2023-10-19T06:27:44;12.30;72.40
13707;DHT22;6925;47.816;13.072;2023-10-19T06:30:11;12.40;72.50
13707;DHT22;6925;47.816;13.072;2023-10-19T06:32:44;12.50;72.60
13707;DHT22;6925;47.816;13.072;2023-10-19T06:35:12;12.50;72.50
13707;DHT22;6925;47.816;13.072;2023-10-19T06:37:39;12.60;72.50
13707;DHT22;6925;47.816;13.072;2023-10-19T06:40:07;12.70;72.40
13707;DHT22;6925;47.816;13.072;2023-10-19T06:42:36;12.80;72.50
13707;DHT22;6925;47.816;13.072;2023-10-19T06:45:04;12.80;72.60
13707;DHT22;6925;47.816;13.072;2023-10-19T06:47:32;12.90;73.80
13707;DHT22;6925;47.816;13.072;2023-10-19T06:50:04;13.00;73.00
13707;DHT22;6925;47.816;13.072;2023-10-19T06:52:34;13.00;72.50
13707;DHT22;6925;47.816;13.072;2023-10-19T06:55:03;13.10;72.70
13707;DHT22;6925;47.816;13.072;2023-10-19T06:57:30;13.10;72.70
13707;DHT22;6925;47.816;13.072;2023-10-19T06:59:58;13.20;73.10
13707;DHT22;6925;47.816;13.072;2023-10-19T07:02:25;13.30;73.10
13707;DHT22;6925;47.816;13.072;2023-10-19T07:04:52;13.20;71.60
13707;DHT22;6925;47.816;13.072;2023-10-19T07:07:19;13.20;72.10
13707;DHT22;6925;47.816;13.072;2023-10-19T07:09:47;13.20;72.40
13707;DHT22;6925;47.816;13.072;2023-10-19T07:12:16;13.20;72.20
13707;DHT22;6925;47.816;13.072;2023-10-19T07:14:43;13.30;72.70
13707;DHT22;6925;47.816;13.072;2023-10-19T07:17:10;13.20;71.70
13707;DHT22;6925;47.816;13.072;2023-10-19T07:19:42;13.20;71.70
13707;DHT22;6925;47.816;13.072;2023-10-19T07:22:09;13.20;72.00
13707;DHT22;6925;47.816;13.072;2023-10-19T07:24:36;13.30;72.10
13707;DHT22;6925;47.816;13.072;2023-10-19T07:27:05;13.30;72.30
13707;DHT22;6925;47.816;13.072;2023-10-19T07:29:33;13.40;72.70
13707;DHT22;6925;47.816;13.072;2023-10-19T07:32:01;13.50;72.60
13707;DHT22;6925;47.816;13.072;2023-10-19T07:34:31;13.50;72.70
13707;DHT22;6925;47.816;13.072;2023-10-19T07:36:59;13.50;72.00
13707;DHT22;6925;47.816;13.072;2023-10-19T07:39:26;13.40;73.30
13707;DHT22;6925;47.816;13.072;2023-10-19T07:41:55;13.50;73.30
13707;DHT22;6925;47.816;13.072;2023-10-19T07:44:23;13.60;73.00
13707;DHT22;6925;47.816;13.072;2023-10-19T07:46:51;13.60;73.40
13707;DHT22;6925;47.816;13.072;2023-10-19T07:49:19;13.70;73.20
13707;DHT22;6925;47.816;13.072;2023-10-19T07:51:47;13.70;72.40
13707;DHT22;6925;47.816;13.072;2023-10-19T07:54:15;13.80;72.90
13707;DHT22;6925;47.816;13.072;2023-10-19T07:56:42;13.80;73.00
13707;DHT22;6925;47.816;13.072;2023-10-19T07:59:09;13.80;73.20
13707;DHT22;6925;47.816;13.072;2023-10-19T08:01:39;13.90;73.40
13707;DHT22;6925;47.816;13.072;2023-10-19T08:04:06;13.90;73.60
13707;DHT22;6925;47.816;13.072;2023-10-19T08:06:33;14.10;73.90
13707;DHT22;6925;47.816;13.072;2023-10-19T08:09:01;14.10;73.20
13707;DHT22;6925;47.816;13.072;2023-10-19T08:11:30;14.10;73.30
13707;DHT22;6925;47.816;13.072;2023-10-19T08:13:59;14.20;72.30
13707;DHT22;6925;47.816;13.072;2023-10-19T08:16:26;14.20;72.30
13707;DHT22;6925;47.816;13.072;2023-10-19T08:18:54;14.20;72.20
13707;DHT22;6925;47.816;13.072;2023-10-19T08:21:23;14.30;72.00
13707;DHT22;6925;47.816;13.072;2023-10-19T08:23:50;14.30;72.10
13707;DHT22;6925;47.816;13.072;2023-10-19T08:26:19;14.30;72.80
13707;DHT22;6925;47.816;13.072;2023-10-19T08:28:47;14.40;73.10
13707;DHT22;6925;47.816;13.072;2023-10-19T08:31:15;14.50;73.30
13707;DHT22;6925;47.816;13.072;2023-10-19T08:33:42;14.60;72.70
13707;DHT22;6925;47.816;13.072;2023-10-19T08:36:18;14.70;73.10
13707;DHT22;6925;47.816;13.072;2023-10-19T08:38:46;14.70;72.30
13707;DHT22;6925;47.816;13.072;2023-10-19T08:41:13;14.70;69.90
13707;DHT22;6925;47.816;13.072;2023-10-19T08:43:41;14.80;71.50
13707;DHT22;6925;47.816;13.072;2023-10-19T08:46:10;14.90;69.80
13707;DHT22;6925;47.816;13.072;2023-10-19T08:48:38;15.00;69.60
13707;DHT22;6925;47.816;13.072;2023-10-19T08:51:08;15.00;70.50
13707;DHT22;6925;47.816;13.072;2023-10-19T08:53:37;15.10;71.70
13707;DHT22;6925;47.816;13.072;2023-10-19T08:56:06;15.20;71.10
13707;DHT22;6925;47.816;13.072;2023-10-19T08:58:34;15.30;71.50
13707;DHT22;6925;47.816;13.072;2023-10-19T09:01:01;15.30;70.10
13707;DHT22;6925;47.816;13.072;2023-10-19T09:03:35;15.30;71.10
13707;DHT22;6925;47.816;13.072;2023-10-19T09:06:02;15.30;71.40
13707;DHT22;6925;47.816;13.072;2023-10-19T09:08:31;15.40;71.80
13707;DHT22;6925;47.816;13.072;2023-10-19T09:11:11;15.40;72.10
13707;DHT22;6925;47.816;13.072;2023-10-19T09:13:45;15.50;71.40
13707;DHT22;6925;47.816;13.072;2023-10-19T09:16:14;15.50;71.60
13707;DHT22;6925;47.816;13.072;2023-10-19T09:18:42;15.50;70.60
13707;DHT22;6925;47.816;13.072;2023-10-19T09:21:10;15.50;70.50
13707;DHT22;6925;47.816;13.072;2023-10-19T09:23:50;15.60;71.10
13707;DHT22;6925;47.816;13.072;2023-10-19T09:26:18;15.60;70.90
13707;DHT22;6925;47.816;13.072;2023-10-19T09:28:48;15.70;71.10
13707;DHT22;6925;47.816;13.072;2023-10-19T09:31:16;15.80;70.10
13707;DHT22;6925;47.816;13.072;2023-10-19T09:33:45;16.00;70.30
13707;DHT22;6925;47.816;13.072;2023-10-19T09:36:13;16.10;69.60
13707;DHT22;6925;47.816;13.072;2023-10-19T09:38:44;16.30;69.10
13707;DHT22;6925;47.816;13.072;2023-10-19T09:41:14;16.50;68.80
13707;DHT22;6925;47.816;13.072;2023-10-19T09:43:44;16.80;68.20
13707;DHT22;6925;47.816;13.072;2023-10-19T09:46:12;16.90;65.30
13707;DHT22;6925;47.816;13.072;2023-10-19T09:48:45;17.00;67.30
13707;DHT22;6925;47.816;13.072;2023-10-19T09:51:14;17.20;67.30
13707;DHT22;6925;47.816;13.072;2023-10-19T09:53:44;17.40;65.60
13707;DHT22;6925;47.816;13.072;2023-10-19T09:56:20;17.50;65.20
13707;DHT22;6925;47.816;13.072;2023-10-19T09:58:52;17.60;66.30
13707;DHT22;6925;47.816;13.072;2023-10-19T10:01:20;17.70;67.30
13707;DHT22;6925;47.816;13.072;2023-10-19T10:03:49;17.90;66.20
13707;DHT22;6925;47.816;13.072;2023-10-19T10:06:17;17.90;63.80
13707;DHT22;6925;47.816;13.072;2023-10-19T10:08:53;17.80;63.80
13707;DHT22;6925;47.816;13.072;2023-10-19T10:11:22;17.80;66.20
13707;DHT22;6925;47.816;13.072;2023-10-19T10:13:51;17.80;66.00
13707;DHT22;6925;47.816;13.072;2023-10-19T10:16:19;17.80;64.90
13707;DHT22;6925;47.816;13.072;2023-10-19T10:18:47;17.80;65.40
13707;DHT22;6925;47.816;13.072;2023-10-19T10:21:17;17.90;65.50
13707;DHT22;6925;47.816;13.072;2023-10-19T10:23:48;17.90;65.10
13707;DHT22;6925;47.816;13.072;2023-10-19T10:26:16;18.00;66.30
13707;DHT22;6925;47.816;13.072;2023-10-19T10:28:46;18.00;66.40
13707;DHT22;6925;47.816;13.072;2023-10-19T10:31:19;18.10;65.40
13707;DHT22;6925;47.816;13.072;2023-10-19T10:33:49;18.00;64.00
13707;DHT22;6925;47.816;13.072;2023-10-19T10:36:17;18.00;64.60
13707;DHT22;6925;47.816;13.072;2023-10-19T10:38:45;17.90;64.60
13707;DHT22;6925;47.816;13.072;2023-10-19T10:41:18;17.90;64.20
13707;DHT22;6925;47.816;13.072;2023-10-19T10:43:50;17.90;65.30
13707;DHT22;6925;47.816;13.072;2023-10-19T10:46:20;18.00;66.50
13707;DHT22;6925;47.816;13.072;2023-10-19T10:48:48;18.00;65.60
13707;DHT22;6925;47.816;13.072;2023-10-19T10:51:19;18.00;65.60
13707;DHT22;6925;47.816;13.072;2023-10-19T10:53:52;18.00;66.30
13707;DHT22;6925;47.816;13.072;2023-10-19T10:56:20;18.10;66.50
13707;DHT22;6925;47.816;13.072;2023-10-19T10:58:47;18.30;66.30
13707;DHT22;6925;47.816;13.072;2023-10-19T11:01:15;18.40;65.20
13707;DHT22;6925;47.816;13.072;2023-10-19T11:03:44;18.60;65.80
13707;DHT22;6925;47.816;13.072;2023-10-19T11:06:12;18.80;65.00
13707;DHT22;6925;47.816;13.072;2023-10-19T11:08:39;18.90;64.40
13707;DHT22;6925;47.816;13.072;2023-10-19T11:11:07;19.10;64.40
13707;DHT22;6925;47.816;13.072;2023-10-19T11:13:37;19.40;64.50
13707;DHT22;6925;47.816;13.072;2023-10-19T11:16:05;19.70;63.50
13707;DHT22;6925;47.816;13.072;2023-10-19T11:18:37;20.00;61.60
13707;DHT22;6925;47.816;13.072;2023-10-19T11:21:08;20.20;58.70
13707;DHT22;6925;47.816;13.072;2023-10-19T11:23:37;20.50;59.10
13707;DHT22;6925;47.816;13.072;2023-10-19T11:26:04;20.70;58.10
13707;DHT22;6925;47.816;13.072;2023-10-19T11:28:32;20.80;58.90
13707;DHT22;6925;47.816;13.072;2023-10-19T11:31:16;21.10;58.80
13707;DHT22;6925;47.816;13.072;2023-10-19T11:33:44;21.20;57.10
13707;DHT22;6925;47.816;13.072;2023-10-19T11:36:16;21.20;58.80
13707;DHT22;6925;47.816;13.072;2023-10-19T11:38:45;21.30;58.70
13707;DHT22;6925;47.816;13.072;2023-10-19T11:41:13;21.50;58.50
13707;DHT22;6925;47.816;13.072;2023-10-19T11:43:41;21.60;57.20
13707;DHT22;6925;47.816;13.072;2023-10-19T11:46:09;21.70;57.40
13707;DHT22;6925;47.816;13.072;2023-10-19T11:48:37;21.90;57.40
13707;DHT22;6925;47.816;13.072;2023-10-19T11:51:06;22.00;57.30
13707;DHT22;6925;47.816;13.072;2023-10-19T11:53:36;22.30;57.30
13707;DHT22;6925;47.816;13.072;2023-10-19T11:56:04;22.60;57.70
13707;DHT22;6925;47.816;13.072;2023-10-19T11:58:31;22.90;57.00
13707;DHT22;6925;47.816;13.072;2023-10-19T12:01:00;23.20;56.40
13707;DHT22;6925;47.816;13.072;2023-10-19T12:03:28;23.60;57.20
13707;DHT22;6925;47.816;13.072;2023-10-19T12:05:56;24.00;55.10
13707;DHT22;6925;47.816;13.072;2023-10-19T12:08:23;24.10;54.60
13707;DHT22;6925;47.816;13.072;2023-10-19T12:10:52;24.20;54.20
13707;DHT22;6925;47.816;13.072;2023-10-19T12:13:19;24.20;53.30
13707;DHT22;6925;47.816;13.072;2023-10-19T12:15:46;24.10;53.30
13707;DHT22;6925;47.816;13.072;2023-10-19T12:18:19;24.10;54.80
13707;DHT22;6925;47.816;13.072;2023-10-19T12:20:46;24.30;53.30
13707;DHT22;6925;47.816;13.072;2023-10-19T12:23:14;24.40;53.00
13707;DHT22;6925;47.816;13.072;2023-10-19T12:25:41;24.40;53.00
13707;DHT22;6925;47.816;13.072;2023-10-19T12:28:10;24.60;53.40
13707;DHT22;6925;47.816;13.072;2023-10-19T12:30:41;24.70;52.40
13707;DHT22;6925;47.816;13.072;2023-10-19T12:33:08;24.60;52.30
13707;DHT22;6925;47.816;13.072;2023-10-19T12:35:38;24.50;52.80
13707;DHT22;6925;47.816;13.072;2023-10-19T12:38:15;24.50;53.40
13707;DHT22;6925;47.816;13.072;2023-10-19T12:40:43;24.50;53.80
13707;DHT22;6925;47.816;13.072;2023-10-19T12:43:13;24.60;53.70
13707;DHT22;6925;47.816;13.072;2023-10-19T12:45:41;24.70;54.60
13707;DHT22;6925;47.816;13.072;2023-10-19T12:48:09;25.00;54.20
13707;DHT22;6925;47.816;13.072;2023-10-19T12:50:37;25.20;52.40
13707;DHT22;6925;47.816;13.072;2023-10-19T12:53:07;25.30;52.00
13707;DHT22;6925;47.816;13.072;2023-10-19T12:55:34;25.50;51.50
13707;DHT22;6925;47.816;13.072;2023-10-19T12:58:03;25.70;51.30
13707;DHT22;6925;47.816;13.072;2023-10-19T13:00:36;25.80;50.80
13707;DHT22;6925;47.816;13.072;2023-10-19T13:03:07;26.00;51.90
13707;DHT22;6925;47.816;13.072;2023-10-19T13:05:39;26.10;50.10
13707;DHT22;6925;47.816;13.072;2023-10-19T13:08:07;26.50;51.70
13707;DHT22;6925;47.816;13.072;2023-10-19T13:10:35;26.80;48.50
13707;DHT22;6925;47.816;13.072;2023-10-19T13:13:06;26.90;47.50
13707;DHT22;6925;47.816;13.072;2023-10-19T13:15:38;26.90;46.70
13707;DHT22;6925;47.816;13.072;2023-10-19T13:18:06;27.10;47.10
13707;DHT22;6925;47.816;13.072;2023-10-19T13:20:35;27.20;46.40
13707;DHT22;6925;47.816;13.072;2023-10-19T13:23:04;27.40;44.50
13707;DHT22;6925;47.816;13.072;2023-10-19T13:25:33;27.50;45.30
13707;DHT22;6925;47.816;13.072;2023-10-19T13:28:09;27.80;46.40
13707;DHT22;6925;47.816;13.072;2023-10-19T13:30:38;28.30;46.70
13707;DHT22;6925;47.816;13.072;2023-10-19T13:33:06;28.50;44.10
13707;DHT22;6925;47.816;13.072;2023-10-19T13:35:35;28.50;44.00
13707;DHT22;6925;47.816;13.072;2023-10-19T13:38:03;28.50;43.20
13707;DHT22;6925;47.816;13.072;2023-10-19T13:40:30;28.60;44.20
13707;DHT22;6925;47.816;13.072;2023-10-19T13:42:58;28.90;43.30
13707;DHT22;6925;47.816;13.072;2023-10-19T13:45:25;28.90;41.30
13707;DHT22;6925;47.816;13.072;2023-10-19T13:47:54;28.90;42.90
13707;DHT22;6925;47.816;13.072;2023-10-19T13:50:22;29.10;43.10
13707;DHT22;6925;47.816;13.072;2023-10-19T13:52:51;29.20;42.60
13707;DHT22;6925;47.816;13.072;2023-10-19T13:55:18;29.10;41.00
13707;DHT22;6925;47.816;13.072;2023-10-19T13:57:46;29.10;42.10
13707;DHT22;6925;47.816;13.072;2023-10-19T14:00:14;29.10;41.90
13707;DHT22;6925;47.816;13.072;2023-10-19T14:02:49;28.90;42.10
13707;DHT22;6925;47.816;13.072;2023-10-19T14:05:19;28.70;42.30
13707;DHT22;6925;47.816;13.072;2023-10-19T14:07:46;28.70;43.00
13707;DHT22;6925;47.816;13.072;2023-10-19T14:10:13;28.80;42.20
13707;DHT22;6925;47.816;13.072;2023-10-19T14:12:42;28.70;41.60
13707;DHT22;6925;47.816;13.072;2023-10-19T14:15:13;28.50;41.90
13707;DHT22;6925;47.816;13.072;2023-10-19T14:17:41;28.40;42.30
13707;DHT22;6925;47.816;13.072;2023-10-19T14:20:09;28.30;42.30
13707;DHT22;6925;47.816;13.072;2023-10-19T14:22:41;28.20;42.40
13707;DHT22;6925;47.816;13.072;2023-10-19T14:25:08;28.00;41.80
13707;DHT22;6925;47.816;13.072;2023-10-19T14:27:39;27.80;43.80
13707;DHT22;6925;47.816;13.072;2023-10-19T14:30:07;27.80;43.70
13707;DHT22;6925;47.816;13.072;2023-10-19T14:32:37;27.80;43.20
13707;DHT22;6925;47.816;13.072;2023-10-19T14:35:06;27.50;42.70
13707;DHT22;6925;47.816;13.072;2023-10-19T14:37:35;27.20;43.70
13707;DHT22;6925;47.816;13.072;2023-10-19T14:40:07;27.10;44.00
13707;DHT22;6925;47.816;13.072;2023-10-19T14:42:36;26.90;44.40
13707;DHT22;6925;47.816;13.072;2023-10-19T14:45:05;26.70;45.50
13707;DHT22;6925;47.816;13.072;2023-10-19T14:47:35;26.50;45.70
13707;DHT22;6925;47.816;13.072;2023-10-19T14:50:03;26.30;46.10
13707;DHT22;6925;47.816;13.072;2023-10-19T14:52:30;26.10;46.70
13707;DHT22;6925;47.816;13.072;2023-10-19T14:54:58;25.90;46.80
13707;DHT22;6925;47.816;13.072;2023-10-19T14:57:26;25.70;47.60
13707;DHT22;6925;47.816;13.072;2023-10-19T14:59:54;25.40;47.60
13707;DHT22;6925;47.816;13.072;2023-10-19T15:02:21;25.10;47.90
13707;DHT22;6925;47.816;13.072;2023-10-19T15:04:49;24.90;49.10
13707;DHT22;6925;47.816;13.072;2023-10-19T15:07:17;24.70;49.50
13707;DHT22;6925;47.816;13.072;2023-10-19T15:09:44;24.50;49.60
13707;DHT22;6925;47.816;13.072;2023-10-19T15:12:13;24.40;50.00
13707;DHT22;6925;47.816;13.072;2023-10-19T15:14:41;24.20;50.00
13707;DHT22;6925;47.816;13.072;2023-10-19T15:17:09;24.00;50.50
13707;DHT22;6925;47.816;13.072;2023-10-19T15:19:37;23.80;51.20
13707;DHT22;6925;47.816;13.072;2023-10-19T15:22:04;23.60;51.60
13707;DHT22;6925;47.816;13.072;2023-10-19T15:24:31;23.40;51.60
13707;DHT22;6925;47.816;13.072;2023-10-19T15:26:58;23.20;51.80
13707;DHT22;6925;47.816;13.072;2023-10-19T15:29:25;23.10;52.40
13707;DHT22;6925;47.816;13.072;2023-10-19T15:31:54;22.90;52.40
13707;DHT22;6925;47.816;13.072;2023-10-19T15:34:21;22.70;52.80
13707;DHT22;6925;47.816;13.072;2023-10-19T15:36:48;22.60;53.20
13707;DHT22;6925;47.816;13.072;2023-10-19T15:39:15;22.50;53.60
13707;DHT22;6925;47.816;13.072;2023-10-19T15:41:43;22.50;53.50